createdAt,value
2018-05-18T00:00:13.308Z,97763.77
2018-05-18T00:00:44.881Z,97765.07
2018-05-18T00:01:16.482Z,97764.23
2018-05-18T00:01:48.092Z,97762.16
2018-05-18T00:02:19.698Z,97762.52
2018-05-18T00:02:51.302Z,97760.37
2018-05-18T00:03:22.904Z,97758.73
2018-05-18T00:03:54.534Z,97769.75
2018-05-18T00:04:26.138Z,97765.91
2018-05-18T00:04:57.741Z,97764.65
2018-05-18T00:05:29.350Z,97763.80
2018-05-18T00:06:00.954Z,97766.83
2018-05-18T00:06:32.557Z,97768.11
2018-05-18T00:07:04.166Z,97768.56
2018-05-18T00:07:35.750Z,97769.84
2018-05-18T00:08:07.351Z,97771.95
2018-05-18T00:08:38.934Z,97768.92
2018-05-18T00:09:10.602Z,97763.80
2018-05-18T00:09:42.176Z,97764.65
2018-05-18T00:10:13.754Z,97762.53
2018-05-18T00:10:45.320Z,97768.11
2018-05-18T00:11:16.907Z,97767.69
2018-05-18T00:11:48.477Z,97764.73
2018-05-18T00:12:20.045Z,97762.18
2018-05-18T00:12:51.649Z,97766.49
2018-05-18T00:13:23.263Z,97769.05
2018-05-18T00:13:54.846Z,97763.50
2018-05-18T00:14:26.494Z,97767.72
2018-05-18T00:14:58.082Z,97764.30
2018-05-18T00:15:29.673Z,97759.63
2018-05-18T00:16:01.279Z,97763.94
2018-05-18T00:16:32.852Z,97760.95
2018-05-18T00:17:04.424Z,97763.02
2018-05-18T00:17:36.010Z,97765.58
2018-05-18T00:18:07.625Z,97771.10
2018-05-18T00:18:39.213Z,97768.13
2018-05-18T00:19:10.861Z,97770.26
2018-05-18T00:19:42.459Z,97769.77
2018-05-18T00:20:14.042Z,97774.09
2018-05-18T00:20:45.653Z,97767.28
2018-05-18T00:21:17.260Z,97773.25
2018-05-18T00:21:48.887Z,97769.41
2018-05-18T00:22:20.457Z,97774.53
2018-05-18T00:22:52.034Z,97765.20
2018-05-18T00:23:23.624Z,97775.37
2018-05-18T00:23:55.214Z,97774.97
2018-05-18T00:24:26.808Z,97768.57
2018-05-18T00:24:58.390Z,97768.63
2018-05-18T00:25:29.994Z,97768.20
2018-05-18T00:26:01.588Z,97769.91
2018-05-18T00:26:33.233Z,97773.25
2018-05-18T00:27:04.866Z,97780.08
2018-05-18T00:27:36.460Z,97769.06
2018-05-18T00:28:08.064Z,97767.76
2018-05-18T00:28:39.683Z,97771.59
2018-05-18T00:29:11.263Z,97770.27
2018-05-18T00:29:42.870Z,97768.57
2018-05-18T00:30:14.478Z,97776.24
2018-05-18T00:30:46.081Z,97774.59
2018-05-18T00:31:17.692Z,97773.30
2018-05-18T00:31:49.329Z,97769.43
2018-05-18T00:32:20.934Z,97772.81
2018-05-18T00:32:52.513Z,97777.92
2018-05-18T00:33:24.081Z,97774.95
2018-05-18T00:33:55.674Z,97777.98
2018-05-18T00:34:27.248Z,97774.54
2018-05-18T00:34:58.826Z,97772.88
2018-05-18T00:35:30.461Z,97778.84
2018-05-18T00:36:02.066Z,97773.69
2018-05-18T00:36:33.682Z,97778.36
2018-05-18T00:37:05.256Z,97772.03
2018-05-18T00:37:36.857Z,97773.73
2018-05-18T00:38:08.448Z,97780.48
2018-05-18T00:38:40.061Z,97778.78
2018-05-18T00:39:11.657Z,97776.71
2018-05-18T00:39:43.233Z,97775.44
2018-05-18T00:40:14.838Z,97775.81
2018-05-18T00:40:46.465Z,97777.52
2018-05-18T00:41:18.055Z,97778.86
2018-05-18T00:41:49.631Z,97778.80
2018-05-18T00:42:21.246Z,97781.34
2018-05-18T00:42:52.817Z,97774.11
2018-05-18T00:43:24.419Z,97775.38
2018-05-18T00:43:56.030Z,97779.20
2018-05-18T00:44:27.614Z,97771.53
2018-05-18T00:44:59.238Z,97774.09
2018-05-18T00:45:31.130Z,97783.05
2018-05-18T00:46:02.766Z,97782.19
2018-05-18T00:46:34.363Z,97780.91
2018-05-18T00:47:05.961Z,97781.78
2018-05-18T00:47:37.568Z,97782.19
2018-05-18T00:48:09.157Z,97784.38
2018-05-18T00:48:40.738Z,97783.05
2018-05-18T00:49:12.305Z,97786.03
2018-05-18T00:49:43.918Z,97779.27
2018-05-18T00:50:15.564Z,97790.36
2018-05-18T00:50:47.147Z,97786.52
2018-05-18T00:51:18.754Z,97783.97
2018-05-18T00:51:50.352Z,97778.38
2018-05-18T00:52:21.946Z,97774.60
2018-05-18T00:52:53.517Z,97782.26
2018-05-18T00:53:25.112Z,97783.91
2018-05-18T00:53:56.689Z,97780.50
2018-05-18T00:54:28.270Z,97784.74
2018-05-18T00:54:59.854Z,97782.63
2018-05-18T00:55:31.474Z,97780.48
2018-05-18T00:56:03.054Z,97779.20
2018-05-18T00:56:34.704Z,97783.91
2018-05-18T00:57:06.286Z,97782.61
2018-05-18T00:57:37.871Z,97784.74
2018-05-18T00:58:09.455Z,97787.38
2018-05-18T00:58:41.058Z,97789.02
2018-05-18T00:59:12.647Z,97791.58
2018-05-18T00:59:44.263Z,97789.03
2018-05-18T01:00:15.836Z,97788.61
2018-05-18T01:00:47.421Z,97789.09
2018-05-18T01:01:19.034Z,97786.94
2018-05-18T01:01:50.653Z,97794.12
2018-05-18T01:02:22.244Z,97790.30
2018-05-18T01:02:53.850Z,97798.81
2018-05-18T01:03:25.444Z,97793.28
2018-05-18T01:03:57.032Z,97786.11
2018-05-18T01:04:28.635Z,97787.80
2018-05-18T01:05:00.250Z,97791.58
2018-05-18T01:05:31.827Z,97782.19
2018-05-18T01:06:03.464Z,97784.76
2018-05-18T01:06:35.046Z,97790.30
2018-05-18T01:07:06.670Z,97792.86
2018-05-18T01:07:38.264Z,97789.09
2018-05-18T01:08:09.874Z,97790.80
2018-05-18T01:08:41.453Z,97791.66
2018-05-18T01:09:13.039Z,97791.22
2018-05-18T01:09:44.689Z,97791.22
2018-05-18T01:10:16.285Z,97790.80
2018-05-18T01:10:47.897Z,97793.79
2018-05-18T01:11:19.496Z,97795.11
2018-05-18T01:11:51.096Z,97795.07
2018-05-18T01:12:22.692Z,97793.79
2018-05-18T01:12:54.275Z,97796.34
2018-05-18T01:13:25.857Z,97798.48
2018-05-18T01:13:57.452Z,97794.26
2018-05-18T01:14:29.034Z,97797.20
2018-05-18T01:15:00.654Z,97794.62
2018-05-18T01:15:32.249Z,97794.62
2018-05-18T01:16:03.895Z,97790.36
2018-05-18T01:16:35.492Z,97798.03
2018-05-18T01:17:07.074Z,97798.03
2018-05-18T01:17:38.653Z,97802.30
2018-05-18T01:18:10.237Z,97796.75
2018-05-18T01:18:41.867Z,97793.34
2018-05-18T01:19:13.438Z,97797.60
2018-05-18T01:19:45.036Z,97791.22
2018-05-18T01:20:16.636Z,97798.03
2018-05-18T01:20:48.252Z,97795.06
2018-05-18T01:21:19.834Z,97792.56
2018-05-18T01:21:51.437Z,97789.09
2018-05-18T01:22:23.008Z,97798.95
2018-05-18T01:22:54.585Z,97793.84
2018-05-18T01:23:26.153Z,97789.53
2018-05-18T01:23:57.796Z,97793.37
2018-05-18T01:24:29.382Z,97797.19
2018-05-18T01:25:00.986Z,97792.08
2018-05-18T01:25:32.585Z,97790.37
2018-05-18T01:26:04.174Z,97790.42
2018-05-18T01:26:35.768Z,97795.07
2018-05-18T01:27:07.371Z,97798.05
2018-05-18T01:27:38.973Z,97797.19
2018-05-18T01:28:10.558Z,97796.34
2018-05-18T01:28:42.152Z,97795.92
2018-05-18T01:29:13.778Z,97801.03
2018-05-18T01:29:45.358Z,97794.20
2018-05-18T01:30:16.986Z,97792.91
2018-05-18T01:30:48.559Z,97803.15
2018-05-18T01:31:20.138Z,97800.61
2018-05-18T01:31:51.722Z,97792.58
2018-05-18T01:32:23.306Z,97793.84
2018-05-18T01:32:54.897Z,97790.00
2018-05-18T01:33:26.512Z,97794.27
2018-05-18T01:33:58.115Z,97790.86
2018-05-18T01:34:29.702Z,97788.30
2018-05-18T01:35:01.292Z,97792.13
2018-05-18T01:35:32.940Z,97791.28
2018-05-18T01:36:04.523Z,97787.88
2018-05-18T01:36:36.088Z,97795.53
2018-05-18T01:37:07.661Z,97789.94
2018-05-18T01:37:39.246Z,97795.49
2018-05-18T01:38:10.824Z,97791.66
2018-05-18T01:38:42.406Z,97792.94
2018-05-18T01:39:13.993Z,97788.67
2018-05-18T01:39:45.570Z,97790.81
2018-05-18T01:40:17.165Z,97790.86
2018-05-18T01:40:48.807Z,97792.56
2018-05-18T01:41:20.404Z,97793.41
2018-05-18T01:41:52.014Z,97789.59
2018-05-18T01:42:23.606Z,97792.99
2018-05-18T01:42:55.186Z,97792.58
2018-05-18T01:43:26.803Z,97792.59
2018-05-18T01:43:58.430Z,97792.58
2018-05-18T01:44:29.996Z,97793.00
2018-05-18T01:45:01.601Z,97786.18
2018-05-18T01:45:33.206Z,97791.30
2018-05-18T01:46:04.844Z,97791.30
2018-05-18T01:46:36.458Z,97791.70
2018-05-18T01:47:08.065Z,97792.94
2018-05-18T01:47:39.675Z,97794.26
2018-05-18T01:48:11.276Z,97787.02
2018-05-18T01:48:42.852Z,97794.26
2018-05-18T01:49:14.500Z,97788.73
2018-05-18T01:49:46.106Z,97791.73
2018-05-18T01:50:17.713Z,97789.61
2018-05-18T01:50:49.297Z,97790.45
2018-05-18T01:51:20.908Z,97797.27
2018-05-18T01:51:52.516Z,97791.30
2018-05-18T01:52:24.104Z,97790.45
2018-05-18T01:52:55.710Z,97802.39
2018-05-18T01:53:27.304Z,97796.00
2018-05-18T01:53:58.878Z,97797.71
2018-05-18T01:54:30.462Z,97799.89
2018-05-18T01:55:02.032Z,97802.02
2018-05-18T01:55:33.614Z,97800.31
2018-05-18T01:56:05.214Z,97800.31
2018-05-18T01:56:36.806Z,97803.30
2018-05-18T01:57:08.421Z,97803.72
2018-05-18T01:57:40.026Z,97799.47
2018-05-18T01:58:11.619Z,97804.58
2018-05-18T01:58:43.212Z,97799.88
2018-05-18T01:59:14.808Z,97805.84
2018-05-18T01:59:46.418Z,97803.72
2018-05-18T02:00:18.016Z,97802.94
2018-05-18T02:00:49.614Z,97806.70
2018-05-18T02:01:21.192Z,97807.56
2018-05-18T02:01:52.800Z,97805.44
2018-05-18T02:02:24.401Z,97803.73
2018-05-18T02:02:55.982Z,97806.30
2018-05-18T02:03:27.573Z,97802.02
2018-05-18T02:03:59.160Z,97798.19
2018-05-18T02:04:30.730Z,97802.89
2018-05-18T02:05:02.354Z,97802.47
2018-05-18T02:05:33.934Z,97799.50
2018-05-18T02:06:05.528Z,97802.88
2018-05-18T02:06:37.114Z,97797.34
2018-05-18T02:07:08.704Z,97790.53
2018-05-18T02:07:40.284Z,97796.92
2018-05-18T02:08:11.913Z,97799.05
2018-05-18T02:08:43.500Z,97795.64
2018-05-18T02:09:15.075Z,97794.77
2018-05-18T02:09:46.659Z,97797.77
2018-05-18T02:10:18.252Z,97793.94
2018-05-18T02:10:49.848Z,97793.09
2018-05-18T02:11:21.451Z,97793.10
2018-05-18T02:11:53.051Z,97790.16
2018-05-18T02:12:24.634Z,97794.38
2018-05-18T02:12:56.254Z,97782.48
2018-05-18T02:13:27.896Z,97790.55
2018-05-18T02:13:59.495Z,97786.75
2018-05-18T02:14:31.078Z,97785.05
2018-05-18T02:15:02.663Z,97793.58
2018-05-18T02:15:34.267Z,97791.88
2018-05-18T02:16:05.874Z,97793.58
2018-05-18T02:16:37.458Z,97788.05
2018-05-18T02:17:09.065Z,97789.75
2018-05-18T02:17:40.659Z,97788.05
2018-05-18T02:18:12.276Z,97787.20
2018-05-18T02:18:43.852Z,97789.34
2018-05-18T02:19:15.442Z,97786.36
2018-05-18T02:19:47.022Z,97785.92
2018-05-18T02:20:18.616Z,97787.25
2018-05-18T02:20:50.238Z,97794.88
2018-05-18T02:21:21.850Z,97796.20
2018-05-18T02:21:53.448Z,97791.94
2018-05-18T02:22:25.066Z,97794.03
2018-05-18T02:22:56.650Z,97799.61
2018-05-18T02:23:28.274Z,97798.77
2018-05-18T02:23:59.854Z,97798.75
2018-05-18T02:24:31.438Z,97793.64
2018-05-18T02:25:03.032Z,97796.58
2018-05-18T02:25:34.629Z,97801.69
2018-05-18T02:26:06.214Z,97791.47
2018-05-18T02:26:37.829Z,97799.14
2018-05-18T02:27:09.410Z,97794.08
2018-05-18T02:27:41.018Z,97794.50
2018-05-18T02:28:12.606Z,97794.50
2018-05-18T02:28:44.190Z,97796.59
2018-05-18T02:29:15.789Z,97789.81
2018-05-18T02:29:47.370Z,97791.89
2018-05-18T02:30:18.972Z,97796.21
2018-05-18T02:30:50.558Z,97794.51
2018-05-18T02:31:22.139Z,97797.48
2018-05-18T02:31:53.866Z,97789.81
2018-05-18T02:32:25.508Z,97794.08
2018-05-18T02:32:57.123Z,97795.37
2018-05-18T02:33:28.698Z,97790.67
2018-05-18T02:34:00.269Z,97794.51
2018-05-18T02:34:31.869Z,97791.94
2018-05-18T02:35:03.474Z,97797.86
2018-05-18T02:35:35.085Z,97794.03
2018-05-18T02:36:06.695Z,97798.34
2018-05-18T02:36:38.282Z,97804.26
2018-05-18T02:37:09.870Z,97791.89
2018-05-18T02:37:41.531Z,97793.64
2018-05-18T02:38:13.144Z,97793.66
2018-05-18T02:38:44.749Z,97791.94
2018-05-18T02:39:16.362Z,97799.61
2018-05-18T02:39:47.960Z,97797.43
2018-05-18T02:40:19.570Z,97803.39
2018-05-18T02:40:51.163Z,97802.11
2018-05-18T02:41:22.734Z,97800.39
2018-05-18T02:41:54.339Z,97802.97
2018-05-18T02:42:25.943Z,97797.00
2018-05-18T02:42:57.526Z,97800.83
2018-05-18T02:43:29.116Z,97802.09
2018-05-18T02:44:00.704Z,97795.72
2018-05-18T02:44:32.306Z,97806.80
2018-05-18T02:45:03.919Z,97807.23
2018-05-18T02:45:35.510Z,97806.37
2018-05-18T02:46:07.161Z,97808.94
2018-05-18T02:46:38.770Z,97810.20
2018-05-18T02:47:10.345Z,97812.83
2018-05-18T02:47:41.926Z,97807.66
2018-05-18T02:48:13.538Z,97817.45
2018-05-18T02:48:45.117Z,97810.21
2018-05-18T02:49:16.725Z,97818.73
2018-05-18T02:49:48.334Z,97817.88
2018-05-18T02:50:19.950Z,97817.03
2018-05-18T02:50:51.550Z,97818.30
2018-05-18T02:51:23.197Z,97820.42
2018-05-18T02:51:54.806Z,97818.29
2018-05-18T02:52:26.459Z,97820.84
2018-05-18T02:52:58.030Z,97827.24
2018-05-18T02:53:29.639Z,97819.99
2018-05-18T02:54:01.299Z,97825.53
2018-05-18T02:54:32.910Z,97825.11
2018-05-18T02:55:04.514Z,97826.34
2018-05-18T02:55:36.106Z,97828.08
2018-05-18T02:56:07.686Z,97829.36
2018-05-18T02:56:39.297Z,97825.96
2018-05-18T02:57:10.886Z,97821.27
2018-05-18T02:57:42.494Z,97821.27
2018-05-18T02:58:14.078Z,97823.42
2018-05-18T02:58:45.681Z,97823.00
2018-05-18T02:59:17.316Z,97828.09
2018-05-18T02:59:48.907Z,97828.08
2018-05-18T03:00:20.554Z,97825.11
2018-05-18T03:00:52.162Z,97828.51
2018-05-18T03:01:23.736Z,97830.23
2018-05-18T03:01:55.332Z,97820.84
2018-05-18T03:02:26.958Z,97816.58
2018-05-18T03:02:58.542Z,97825.06
2018-05-18T03:03:30.126Z,97817.02
2018-05-18T03:04:01.771Z,97813.20
2018-05-18T03:04:33.387Z,97823.41
2018-05-18T03:05:05.030Z,97827.66
2018-05-18T03:05:36.628Z,97822.13
2018-05-18T03:06:08.245Z,97817.88
2018-05-18T03:06:39.926Z,97822.55
2018-05-18T03:07:11.530Z,97825.96
2018-05-18T03:07:43.118Z,97820.84
2018-05-18T03:08:14.688Z,97830.59
2018-05-18T03:08:46.279Z,97827.19
2018-05-18T03:09:17.870Z,97823.78
2018-05-18T03:09:49.518Z,97827.62
2018-05-18T03:10:21.131Z,97826.75
2018-05-18T03:10:53.181Z,97831.43
2018-05-18T03:11:24.777Z,97831.86
2018-05-18T03:11:56.395Z,97835.70
2018-05-18T03:12:28.010Z,97836.12
2018-05-18T03:12:59.600Z,97826.33
2018-05-18T03:13:31.210Z,97832.28
2018-05-18T03:14:02.830Z,97831.44
2018-05-18T03:14:34.413Z,97827.62
2018-05-18T03:15:06.060Z,97832.73
2018-05-18T03:15:37.642Z,97830.64
2018-05-18T03:16:09.263Z,97837.03
2018-05-18T03:16:40.914Z,97836.56
2018-05-18T03:17:12.500Z,97835.33
2018-05-18T03:17:44.086Z,97835.75
2018-05-18T03:18:15.675Z,97829.37
2018-05-18T03:18:47.281Z,97835.33
2018-05-18T03:19:18.876Z,97838.31
2018-05-18T03:19:50.487Z,97842.10
2018-05-18T03:20:22.098Z,97834.01
2018-05-18T03:20:53.768Z,97834.89
2018-05-18T03:21:25.365Z,97836.56
2018-05-18T03:21:56.970Z,97838.31
2018-05-18T03:22:28.550Z,97841.72
2018-05-18T03:23:00.130Z,97836.19
2018-05-18T03:23:31.734Z,97841.73
2018-05-18T03:24:03.314Z,97837.90
2018-05-18T03:24:34.925Z,97841.31
2018-05-18T03:25:06.510Z,97840.47
2018-05-18T03:25:38.144Z,97843.45
2018-05-18T03:26:09.727Z,97849.84
2018-05-18T03:26:41.330Z,97852.39
2018-05-18T03:27:12.934Z,97852.40
2018-05-18T03:27:44.505Z,97848.55
2018-05-18T03:28:16.110Z,97843.87
2018-05-18T03:28:47.722Z,97845.15
2018-05-18T03:29:19.372Z,97845.15
2018-05-18T03:29:50.982Z,97851.96
2018-05-18T03:30:22.590Z,97849.00
2018-05-18T03:30:54.182Z,97845.16
2018-05-18T03:31:25.782Z,97846.91
2018-05-18T03:31:57.365Z,97850.27
2018-05-18T03:32:28.945Z,97848.61
2018-05-18T03:33:00.550Z,97855.01
2018-05-18T03:33:32.130Z,97844.35
2018-05-18T03:34:03.729Z,97850.70
2018-05-18T03:34:35.345Z,97846.44
2018-05-18T03:35:06.946Z,97849.89
2018-05-18T03:35:38.530Z,97851.13
2018-05-18T03:36:10.134Z,97847.72
2018-05-18T03:36:41.708Z,97850.27
2018-05-18T03:37:13.278Z,97850.27
2018-05-18T03:37:44.858Z,97852.83
2018-05-18T03:38:16.462Z,97844.35
2018-05-18T03:38:48.118Z,97852.44
2018-05-18T03:39:19.696Z,97847.33
2018-05-18T03:39:51.282Z,97846.05
2018-05-18T03:40:22.865Z,97848.61
2018-05-18T03:40:54.470Z,97846.06
2018-05-18T03:41:26.082Z,97848.62
2018-05-18T03:41:57.653Z,97850.31
2018-05-18T03:42:29.230Z,97852.03
2018-05-18T03:43:00.818Z,97847.36
2018-05-18T03:43:32.425Z,97849.47
2018-05-18T03:44:04.077Z,97853.32
2018-05-18T03:44:35.665Z,97847.36
2018-05-18T03:45:07.247Z,97853.73
2018-05-18T03:45:38.893Z,97852.47
2018-05-18T03:46:10.470Z,97851.61
2018-05-18T03:46:42.055Z,97855.88
2018-05-18T03:47:13.732Z,97851.25
2018-05-18T03:47:45.282Z,97848.69
2018-05-18T03:48:16.865Z,97858.91
2018-05-18T03:48:48.475Z,97849.56
2018-05-18T03:49:20.065Z,97846.55
2018-05-18T03:49:51.675Z,97855.88
2018-05-18T03:50:23.263Z,97854.18
2018-05-18T03:50:54.927Z,97857.21
2018-05-18T03:51:26.509Z,97854.66
2018-05-18T03:51:58.106Z,97858.45
2018-05-18T03:52:29.717Z,97855.08
2018-05-18T03:53:01.330Z,97856.37
2018-05-18T03:53:32.907Z,97860.20
2018-05-18T03:54:04.477Z,97856.38
2018-05-18T03:54:36.054Z,97854.26
2018-05-18T03:55:07.627Z,97856.38
2018-05-18T03:55:39.251Z,97858.48
2018-05-18T03:56:10.834Z,97858.45
2018-05-18T03:56:42.425Z,97862.28
2018-05-18T03:57:14.023Z,97858.45
2018-05-18T03:57:45.612Z,97866.16
2018-05-18T03:58:17.212Z,97859.78
2018-05-18T03:58:48.792Z,97867.87
2018-05-18T03:59:20.384Z,97864.88
2018-05-18T03:59:51.964Z,97863.17
2018-05-18T04:00:23.550Z,97872.13
2018-05-18T04:00:55.170Z,97867.03
2018-05-18T04:01:26.801Z,97863.25
2018-05-18T04:01:58.410Z,97867.47
2018-05-18T04:02:30.013Z,97868.81
2018-05-18T04:03:01.631Z,97870.09
2018-05-18T04:03:33.255Z,97871.80
2018-05-18T04:04:04.858Z,97865.41
2018-05-18T04:04:36.429Z,97870.09
2018-05-18T04:05:08.010Z,97869.24
2018-05-18T04:05:39.611Z,97873.50
2018-05-18T04:06:11.804Z,97872.27
2018-05-18T04:06:43.380Z,97871.38
2018-05-18T04:07:14.975Z,97870.09
2018-05-18T04:07:46.610Z,97873.55
2018-05-18T04:08:18.178Z,97873.94
2018-05-18T04:08:49.822Z,97873.48
2018-05-18T04:09:21.418Z,97873.06
2018-05-18T04:09:53.021Z,97873.50
2018-05-18T04:10:24.676Z,97874.29
2018-05-18T04:10:56.226Z,97877.74
2018-05-18T04:11:27.867Z,97877.32
2018-05-18T04:11:59.487Z,97874.33
2018-05-18T04:12:31.066Z,97874.33
2018-05-18T04:13:02.645Z,97878.59
2018-05-18T04:13:34.230Z,97878.67
2018-05-18T04:14:05.820Z,97875.67
2018-05-18T04:14:37.402Z,97882.08
2018-05-18T04:15:09.017Z,97878.68
2018-05-18T04:15:40.598Z,97881.25
2018-05-18T04:16:12.190Z,97875.28
2018-05-18T04:16:43.814Z,97874.85
2018-05-18T04:17:15.384Z,97875.76
2018-05-18T04:17:46.990Z,97871.02
2018-05-18T04:18:18.597Z,97875.32
2018-05-18T04:18:50.191Z,97876.17
2018-05-18T04:19:21.842Z,97875.71
2018-05-18T04:19:53.434Z,97871.52
2018-05-18T04:20:25.027Z,97867.25
2018-05-18T04:20:56.620Z,97871.09
2018-05-18T04:21:28.243Z,97871.09
2018-05-18T04:21:59.877Z,97868.11
2018-05-18T04:22:31.458Z,97874.91
2018-05-18T04:23:03.061Z,97873.20
2018-05-18T04:23:35.581Z,97873.20
2018-05-18T04:24:07.174Z,97873.63
2018-05-18T04:24:38.810Z,97873.16
2018-05-18T04:25:10.419Z,97871.02
2018-05-18T04:25:42.065Z,97880.38
2018-05-18T04:26:13.636Z,97874.41
2018-05-18T04:26:45.243Z,97875.25
2018-05-18T04:27:16.853Z,97869.72
2018-05-18T04:27:48.432Z,97877.81
2018-05-18T04:28:20.014Z,97881.22
2018-05-18T04:28:51.630Z,97873.55
2018-05-18T04:29:23.214Z,97872.70
2018-05-18T04:29:54.805Z,97879.89
2018-05-18T04:30:26.467Z,97873.05
2018-05-18T04:30:58.071Z,97876.84
2018-05-18T04:31:29.678Z,97877.31
2018-05-18T04:32:01.265Z,97880.29
2018-05-18T04:32:32.880Z,97882.37
2018-05-18T04:33:04.475Z,97880.66
2018-05-18T04:33:36.069Z,97882.30
2018-05-18T04:34:07.640Z,97874.25
2018-05-18T04:34:39.228Z,97879.32
2018-05-18T04:35:10.806Z,97881.01
2018-05-18T04:35:42.440Z,97874.17
2018-05-18T04:36:14.019Z,97873.27
2018-05-18T04:36:45.597Z,97883.48
2018-05-18T04:37:17.197Z,97884.33
2018-05-18T04:37:48.768Z,97888.98
2018-05-18T04:38:20.354Z,97886.41
2018-05-18T04:38:52.002Z,97884.69
2018-05-18T04:39:23.588Z,97888.09
2018-05-18T04:39:55.177Z,97886.77
2018-05-18T04:40:26.765Z,97883.77
2018-05-18T04:40:58.376Z,97888.02
2018-05-18T04:41:29.966Z,97891.02
2018-05-18T04:42:01.546Z,97889.25
2018-05-18T04:42:33.162Z,97894.79
2018-05-18T04:43:04.750Z,97890.52
2018-05-18T04:43:36.334Z,97893.44
2018-05-18T04:44:07.931Z,97892.45
2018-05-18T04:44:39.535Z,97892.59
2018-05-18T04:45:11.188Z,97902.67
2018-05-18T04:45:42.792Z,97897.91
2018-05-18T04:46:14.401Z,97896.63
2018-05-18T04:46:45.981Z,97897.09
2018-05-18T04:47:17.592Z,97900.47
2018-05-18T04:47:49.185Z,97897.55
2018-05-18T04:48:20.764Z,97892.86
2018-05-18T04:48:52.374Z,97894.12
2018-05-18T04:49:24.072Z,97897.95
2018-05-18T04:49:55.663Z,97900.10
2018-05-18T04:50:27.277Z,97897.55
2018-05-18T04:50:58.860Z,97903.48
2018-05-18T04:51:30.487Z,97900.11
2018-05-18T04:52:02.065Z,97901.02
2018-05-18T04:52:33.669Z,97895.05
2018-05-18T04:53:05.307Z,97893.37
2018-05-18T04:53:36.919Z,97896.84
2018-05-18T04:54:08.525Z,97896.33
2018-05-18T04:54:40.114Z,97906.56
2018-05-18T04:55:11.721Z,97890.30
2018-05-18T04:55:43.314Z,97894.61
2018-05-18T04:56:14.894Z,97895.42
2018-05-18T04:56:46.464Z,97895.47
2018-05-18T04:57:18.065Z,97907.41
2018-05-18T04:57:49.670Z,97899.30
2018-05-18T04:58:21.288Z,97901.37
2018-05-18T04:58:52.909Z,97906.41
2018-05-18T04:59:24.502Z,97902.22
2018-05-18T04:59:56.080Z,97899.25
2018-05-18T05:00:27.682Z,97901.37
2018-05-18T05:00:59.290Z,97897.17
2018-05-18T05:01:30.888Z,97906.55
2018-05-18T05:02:02.484Z,97908.63
2018-05-18T05:02:34.130Z,97905.28
2018-05-18T05:03:05.738Z,97908.29
2018-05-18T05:03:37.354Z,97903.59
2018-05-18T05:04:08.959Z,97901.45
2018-05-18T05:04:40.546Z,97900.95
2018-05-18T05:05:12.128Z,97903.87
2018-05-18T05:05:43.745Z,97900.03
2018-05-18T05:06:15.350Z,97903.87
2018-05-18T05:06:46.961Z,97900.03
2018-05-18T05:07:18.549Z,97906.42
2018-05-18T05:07:50.162Z,97907.28
2018-05-18T05:08:21.770Z,97908.97
2018-05-18T05:08:53.392Z,97903.84
2018-05-18T05:09:24.977Z,97908.53
2018-05-18T05:09:56.586Z,97910.19
2018-05-18T05:10:28.186Z,97916.12
2018-05-18T05:10:59.800Z,97914.41
2018-05-18T05:11:31.406Z,97916.51
2018-05-18T05:12:03.062Z,97918.60
2018-05-18T05:12:34.677Z,97911.36
2018-05-18T05:13:06.266Z,97913.52
2018-05-18T05:13:37.854Z,97913.52
2018-05-18T05:14:09.448Z,97916.51
2018-05-18T05:14:41.096Z,97917.44
2018-05-18T05:15:12.704Z,97917.44
2018-05-18T05:15:44.294Z,97917.42
2018-05-18T05:16:15.873Z,97913.58
2018-05-18T05:16:47.463Z,97911.09
2018-05-18T05:17:19.061Z,97915.78
2018-05-18T05:17:50.757Z,97911.94
2018-05-18T05:18:22.281Z,97914.92
2018-05-18T05:18:53.852Z,97914.45
2018-05-18T05:19:25.459Z,97906.40
2018-05-18T05:19:57.109Z,97916.16
2018-05-18T05:20:28.693Z,97913.14
2018-05-18T05:21:00.264Z,97915.23
2018-05-18T05:21:31.891Z,97916.51
2018-05-18T05:22:03.472Z,97919.05
2018-05-18T05:22:35.072Z,97921.61
2018-05-18T05:23:06.724Z,97916.98
2018-05-18T05:23:38.333Z,97916.56
2018-05-18T05:24:09.941Z,97920.03
2018-05-18T05:24:41.554Z,97917.52
2018-05-18T05:25:13.141Z,97918.43
2018-05-18T05:25:44.717Z,97918.84
2018-05-18T05:26:16.288Z,97915.38
2018-05-18T05:26:47.894Z,97924.33
2018-05-18T05:27:19.483Z,97917.94
2018-05-18T05:27:51.080Z,97920.06
2018-05-18T05:28:22.722Z,97915.42
2018-05-18T05:28:54.308Z,97914.59
2018-05-18T05:29:25.885Z,97918.01
2018-05-18T05:29:57.489Z,97909.05
2018-05-18T05:30:29.198Z,97912.52
2018-05-18T05:31:00.740Z,97919.34
2018-05-18T05:31:32.338Z,97921.05
2018-05-18T05:32:03.946Z,97917.64
2018-05-18T05:32:35.530Z,97918.06
2018-05-18T05:33:07.114Z,97926.19
2018-05-18T05:33:38.742Z,97918.95
2018-05-18T05:34:10.318Z,97921.06
2018-05-18T05:34:41.888Z,97920.72
2018-05-18T05:35:13.467Z,97924.91
2018-05-18T05:35:45.037Z,97927.04
2018-05-18T05:36:16.628Z,97930.01
2018-05-18T05:36:48.211Z,97924.55
2018-05-18T05:37:19.796Z,97922.08
2018-05-18T05:37:51.368Z,97925.03
2018-05-18T05:38:22.945Z,97932.23
2018-05-18T05:38:54.556Z,97919.42
2018-05-18T05:39:26.153Z,97929.64
2018-05-18T05:39:57.758Z,97930.03
2018-05-18T05:40:29.338Z,97930.03
2018-05-18T05:41:00.922Z,97930.50
2018-05-18T05:41:33.115Z,97930.02
2018-05-18T05:42:04.727Z,97935.57
2018-05-18T05:42:36.370Z,97932.64
2018-05-18T05:43:07.961Z,97935.27
2018-05-18T05:43:39.549Z,97936.12
2018-05-18T05:44:11.170Z,97934.01
2018-05-18T05:44:42.773Z,97929.38
2018-05-18T05:45:14.377Z,97934.00
2018-05-18T05:45:45.990Z,97930.14
2018-05-18T05:46:17.570Z,97931.42
2018-05-18T05:46:49.247Z,97930.10
2018-05-18T05:47:20.803Z,97928.87
2018-05-18T05:47:52.414Z,97928.40
2018-05-18T05:48:24.022Z,97929.67
2018-05-18T05:48:55.595Z,97931.38
2018-05-18T05:49:27.182Z,97932.65
2018-05-18T05:49:58.770Z,97938.20
2018-05-18T05:50:30.357Z,97933.94
2018-05-18T05:51:01.940Z,97931.80
2018-05-18T05:51:33.525Z,97933.56
2018-05-18T05:52:05.115Z,97936.13
2018-05-18T05:52:36.684Z,97934.86
2018-05-18T05:53:08.309Z,97930.23
2018-05-18T05:53:39.910Z,97932.80
2018-05-18T05:54:11.480Z,97940.05
2018-05-18T05:54:43.062Z,97931.97
2018-05-18T05:55:14.665Z,97932.38
2018-05-18T05:55:46.291Z,97934.56
2018-05-18T05:56:17.888Z,97936.69
2018-05-18T05:56:49.498Z,97934.98
2018-05-18T05:57:21.073Z,97937.97
2018-05-18T05:57:52.650Z,97938.34
2018-05-18T05:58:24.315Z,97934.56
2018-05-18T05:58:55.867Z,97937.13
2018-05-18T05:59:27.464Z,97937.99
2018-05-18T05:59:59.074Z,97943.95
2018-05-18T06:00:31.013Z,97944.80
2018-05-18T06:01:02.630Z,97945.66
2018-05-18T06:01:34.214Z,97938.82
2018-05-18T06:02:05.785Z,97943.08
2018-05-18T06:02:37.380Z,97944.36
2018-05-18T06:03:08.962Z,97945.17
2018-05-18T06:03:40.572Z,97951.13
2018-05-18T06:04:12.159Z,97940.95
2018-05-18T06:04:43.742Z,97945.22
2018-05-18T06:05:15.323Z,97945.23
2018-05-18T06:05:46.910Z,97946.14
2018-05-18T06:06:18.554Z,97946.58
2018-05-18T06:06:50.170Z,97946.16
2018-05-18T06:07:21.768Z,97953.81
2018-05-18T06:07:53.392Z,97946.09
2018-05-18T06:08:24.999Z,97948.66
2018-05-18T06:08:56.579Z,97952.05
2018-05-18T06:09:28.181Z,97950.27
2018-05-18T06:09:59.770Z,97951.13
2018-05-18T06:10:31.361Z,97949.42
2018-05-18T06:11:02.966Z,97955.88